sensor_id;sensor_type;location;lat;lon;timestamp;temperature;humidity
6843;DHT22;3460;52.028;8.916;2023-01-10T00:00:20;6.50;99.90
6843;DHT22;3460;52.028;8.916;2023-01-10T00:02:47;6.50;99.90
6843;DHT22;3460;52.028;8.916;2023-01-10T00:05:13;6.50;99.90
6843;DHT22;3460;52.028;8.916;2023-01-10T00:07:40;6.50;99.90
6843;DHT22;3460;52.028;8.916;2023-01-10T00:10:08;6.60;99.90
6843;DHT22;3460;52.028;8.916;2023-01-10T00:12:34;6.50;99.90
6843;DHT22;3460;52.028;8.916;2023-01-10T00:15:20;6.50;99.90
6843;DHT22;3460;52.028;8.916;2023-01-10T00:17:47;6.50;99.90
6843;DHT22;3460;52.028;8.916;2023-01-10T00:20:14;6.50;99.90
6843;DHT22;3460;52.028;8.916;2023-01-10T00:22:41;6.50;99.90
6843;DHT22;3460;52.028;8.916;2023-01-10T00:25:08;6.40;99.90
6843;DHT22;3460;52.028;8.916;2023-01-10T00:27:34;6.40;99.90
6843;DHT22;3460;52.028;8.916;2023-01-10T00:30:01;6.40;99.90
6843;DHT22;3460;52.028;8.916;2023-01-10T00:32:39;6.40;99.90
6843;DHT22;3460;52.028;8.916;2023-01-10T00:35:06;6.40;99.90
6843;DHT22;3460;52.028;8.916;2023-01-10T00:37:34;6.40;99.90
6843;DHT22;3460;52.028;8.916;2023-01-10T00:40:00;6.40;99.90
6843;DHT22;3460;52.028;8.916;2023-01-10T00:42:27;6.40;99.90
6843;DHT22;3460;52.028;8.916;2023-01-10T00:45:11;6.40;99.90
6843;DHT22;3460;52.028;8.916;2023-01-10T00:47:39;6.40;99.90
6843;DHT22;3460;52.028;8.916;2023-01-10T00:50:07;6.40;99.90
6843;DHT22;3460;52.028;8.916;2023-01-10T00:52:33;6.40;99.90
6843;DHT22;3460;52.028;8.916;2023-01-10T00:55:00;6.30;99.90
6843;DHT22;3460;52.028;8.916;2023-01-10T00:57:27;6.40;99.90
6843;DHT22;3460;52.028;8.916;2023-01-10T00:59:53;6.40;99.90
6843;DHT22;3460;52.028;8.916;2023-01-10T01:02:20;6.40;99.90
6843;DHT22;3460;52.028;8.916;2023-01-10T01:04:48;6.30;99.90
6843;DHT22;3460;52.028;8.916;2023-01-10T01:07:14;6.30;99.90
6843;DHT22;3460;52.028;8.916;2023-01-10T01:09:41;6.30;99.90
6843;DHT22;3460;52.028;8.916;2023-01-10T01:12:21;6.30;99.90
6843;DHT22;3460;52.028;8.916;2023-01-10T01:14:48;6.30;99.90
6843;DHT22;3460;52.028;8.916;2023-01-10T01:17:15;6.20;99.90
6843;DHT22;3460;52.028;8.916;2023-01-10T01:19:41;6.10;99.90
6843;DHT22;3460;52.028;8.916;2023-01-10T01:22:09;6.10;99.90
6843;DHT22;3460;52.028;8.916;2023-01-10T01:24:36;6.20;99.90
6843;DHT22;3460;52.028;8.916;2023-01-10T01:27:03;6.20;99.90
6843;DHT22;3460;52.028;8.916;2023-01-10T01:29:30;6.10;99.90
6843;DHT22;3460;52.028;8.916;2023-01-10T01:31:57;6.10;99.90
6843;DHT22;3460;52.028;8.916;2023-01-10T01:34:23;6.10;99.90
6843;DHT22;3460;52.028;8.916;2023-01-10T01:36:50;6.00;99.90
6843;DHT22;3460;52.028;8.916;2023-01-10T01:39:18;5.90;99.90
6843;DHT22;3460;52.028;8.916;2023-01-10T01:41:45;6.00;99.90
6843;DHT22;3460;52.028;8.916;2023-01-10T01:44:29;6.00;99.90
6843;DHT22;3460;52.028;8.916;2023-01-10T01:47:00;6.00;99.90
6843;DHT22;3460;52.028;8.916;2023-01-10T01:49:30;6.00;99.90
6843;DHT22;3460;52.028;8.916;2023-01-10T01:52:07;6.00;99.90
6843;DHT22;3460;52.028;8.916;2023-01-10T01:54:36;5.90;99.90
6843;DHT22;3460;52.028;8.916;2023-01-10T01:57:06;5.90;99.90
6843;DHT22;3460;52.028;8.916;2023-01-10T01:59:36;5.90;99.90
6843;DHT22;3460;52.028;8.916;2023-01-10T02:02:08;5.90;99.90
6843;DHT22;3460;52.028;8.916;2023-01-10T02:04:40;5.90;99.90
6843;DHT22;3460;52.028;8.916;2023-01-10T02:07:07;5.90;99.90
6843;DHT22;3460;52.028;8.916;2023-01-10T02:09:41;5.90;99.90
6843;DHT22;3460;52.028;8.916;2023-01-10T02:12:09;5.90;99.90
6843;DHT22;3460;52.028;8.916;2023-01-10T02:14:38;5.90;99.90
6843;DHT22;3460;52.028;8.916;2023-01-10T02:17:08;5.90;99.90
6843;DHT22;3460;52.028;8.916;2023-01-10T02:19:41;6.00;99.90
6843;DHT22;3460;52.028;8.916;2023-01-10T02:22:30;6.00;99.90
6843;DHT22;3460;52.028;8.916;2023-01-10T02:28:31;6.00;99.90
6843;DHT22;3460;52.028;8.916;2023-01-10T02:31:19;6.00;99.90
6843;DHT22;3460;52.028;8.916;2023-01-10T02:33:57;6.10;99.90
6843;DHT22;3460;52.028;8.916;2023-01-10T02:36:34;6.10;99.90
6843;DHT22;3460;52.028;8.916;2023-01-10T02:39:06;6.10;99.90
6843;DHT22;3460;52.028;8.916;2023-01-10T02:41:42;6.10;99.90
6843;DHT22;3460;52.028;8.916;2023-01-10T02:44:16;6.10;99.90
6843;DHT22;3460;52.028;8.916;2023-01-10T02:46:43;6.00;99.90
6843;DHT22;3460;52.028;8.916;2023-01-10T02:49:12;6.00;99.90
6843;DHT22;3460;52.028;8.916;2023-01-10T02:51:39;6.00;99.90
6843;DHT22;3460;52.028;8.916;2023-01-10T02:54:09;5.90;99.90
6843;DHT22;3460;52.028;8.916;2023-01-10T02:59:48;6.00;99.90
6843;DHT22;3460;52.028;8.916;2023-01-10T03:02:23;6.00;99.90
6843;DHT22;3460;52.028;8.916;2023-01-10T03:05:17;6.00;99.90
6843;DHT22;3460;52.028;8.916;2023-01-10T03:07:52;6.20;99.90
6843;DHT22;3460;52.028;8.916;2023-01-10T03:10:24;6.20;99.90
6843;DHT22;3460;52.028;8.916;2023-01-10T03:12:55;6.20;99.90
6843;DHT22;3460;52.028;8.916;2023-01-10T03:15:24;6.20;99.90
6843;DHT22;3460;52.028;8.916;2023-01-10T03:17:56;6.20;99.90
6843;DHT22;3460;52.028;8.916;2023-01-10T03:20:26;6.20;99.90
6843;DHT22;3460;52.028;8.916;2023-01-10T03:22:55;6.20;99.90
6843;DHT22;3460;52.028;8.916;2023-01-10T03:25:24;6.20;99.90
6843;DHT22;3460;52.028;8.916;2023-01-10T03:27:57;6.10;99.90
6843;DHT22;3460;52.028;8.916;2023-01-10T03:30:28;6.10;99.90
6843;DHT22;3460;52.028;8.916;2023-01-10T03:32:57;6.10;99.90
6843;DHT22;3460;52.028;8.916;2023-01-10T03:35:31;6.10;99.90
6843;DHT22;3460;52.028;8.916;2023-01-10T03:38:04;6.10;99.90
6843;DHT22;3460;52.028;8.916;2023-01-10T03:40:37;6.00;99.90
6843;DHT22;3460;52.028;8.916;2023-01-10T03:43:10;6.00;99.90
6843;DHT22;3460;52.028;8.916;2023-01-10T03:45:59;6.00;99.90
6843;DHT22;3460;52.028;8.916;2023-01-10T03:48:30;6.00;99.90
6843;DHT22;3460;52.028;8.916;2023-01-10T03:50:59;6.00;99.90
6843;DHT22;3460;52.028;8.916;2023-01-10T03:53:28;6.00;99.90
6843;DHT22;3460;52.028;8.916;2023-01-10T03:55:55;6.00;99.90
6843;DHT22;3460;52.028;8.916;2023-01-10T03:58:21;6.00;99.90
6843;DHT22;3460;52.028;8.916;2023-01-10T04:00:48;6.00;99.90
6843;DHT22;3460;52.028;8.916;2023-01-10T04:03:15;6.00;99.90
6843;DHT22;3460;52.028;8.916;2023-01-10T04:05:42;6.00;99.90
6843;DHT22;3460;52.028;8.916;2023-01-10T04:08:10;6.00;99.90
6843;DHT22;3460;52.028;8.916;2023-01-10T04:10:36;6.00;99.90
6843;DHT22;3460;52.028;8.916;2023-01-10T04:13:03;6.00;99.90
6843;DHT22;3460;52.028;8.916;2023-01-10T04:15:30;6.00;99.90
6843;DHT22;3460;52.028;8.916;2023-01-10T04:17:57;5.90;99.90
6843;DHT22;3460;52.028;8.916;2023-01-10T04:20:24;5.90;99.90
6843;DHT22;3460;52.028;8.916;2023-01-10T04:22:52;5.90;99.90
6843;DHT22;3460;52.028;8.916;2023-01-10T04:25:20;5.90;99.90
6843;DHT22;3460;52.028;8.916;2023-01-10T04:27:48;5.90;99.90
6843;DHT22;3460;52.028;8.916;2023-01-10T04:30:15;5.90;99.90
6843;DHT22;3460;52.028;8.916;2023-01-10T04:32:42;5.90;99.90
6843;DHT22;3460;52.028;8.916;2023-01-10T04:35:08;5.80;99.90
6843;DHT22;3460;52.028;8.916;2023-01-10T04:37:35;5.80;99.90
6843;DHT22;3460;52.028;8.916;2023-01-10T04:40:02;5.80;99.90
6843;DHT22;3460;52.028;8.916;2023-01-10T04:42:30;5.80;99.90
6843;DHT22;3460;52.028;8.916;2023-01-10T04:44:57;5.80;99.90
6843;DHT22;3460;52.028;8.916;2023-01-10T04:47:23;5.80;99.90
6843;DHT22;3460;52.028;8.916;2023-01-10T04:49:50;5.80;99.90
6843;DHT22;3460;52.028;8.916;2023-01-10T04:52:16;5.70;99.90
6843;DHT22;3460;52.028;8.916;2023-01-10T04:54:43;5.70;99.90
6843;DHT22;3460;52.028;8.916;2023-01-10T04:57:10;5.70;99.90
6843;DHT22;3460;52.028;8.916;2023-01-10T04:59:37;5.70;99.90
6843;DHT22;3460;52.028;8.916;2023-01-10T05:02:04;5.80;99.90
6843;DHT22;3460;52.028;8.916;2023-01-10T05:04:31;5.80;99.90
6843;DHT22;3460;52.028;8.916;2023-01-10T05:06:57;5.70;99.90
6843;DHT22;3460;52.028;8.916;2023-01-10T05:09:24;5.70;99.90
6843;DHT22;3460;52.028;8.916;2023-01-10T05:11:50;5.70;99.90
6843;DHT22;3460;52.028;8.916;2023-01-10T05:14:17;5.60;99.90
6843;DHT22;3460;52.028;8.916;2023-01-10T05:16:45;5.60;99.90
6843;DHT22;3460;52.028;8.916;2023-01-10T05:19:11;5.70;99.90
6843;DHT22;3460;52.028;8.916;2023-01-10T05:21:38;5.70;99.90
6843;DHT22;3460;52.028;8.916;2023-01-10T05:24:05;5.70;99.90
6843;DHT22;3460;52.028;8.916;2023-01-10T05:26:32;5.60;99.90
6843;DHT22;3460;52.028;8.916;2023-01-10T05:28:58;5.70;99.90
6843;DHT22;3460;52.028;8.916;2023-01-10T05:31:25;5.70;99.90
6843;DHT22;3460;52.028;8.916;2023-01-10T05:33:53;5.70;99.90
6843;DHT22;3460;52.028;8.916;2023-01-10T05:36:20;5.70;99.90
6843;DHT22;3460;52.028;8.916;2023-01-10T05:38:46;5.80;99.90
6843;DHT22;3460;52.028;8.916;2023-01-10T05:41:13;5.80;99.90
6843;DHT22;3460;52.028;8.916;2023-01-10T05:43:40;5.80;99.90
6843;DHT22;3460;52.028;8.916;2023-01-10T05:46:06;5.80;99.90
6843;DHT22;3460;52.028;8.916;2023-01-10T05:48:33;5.90;99.90
6843;DHT22;3460;52.028;8.916;2023-01-10T05:51:01;5.90;99.90
6843;DHT22;3460;52.028;8.916;2023-01-10T05:53:28;6.00;99.90
6843;DHT22;3460;52.028;8.916;2023-01-10T05:55:56;6.00;99.90
6843;DHT22;3460;52.028;8.916;2023-01-10T05:58:24;6.00;99.90
6843;DHT22;3460;52.028;8.916;2023-01-10T06:00:51;6.00;99.90
6843;DHT22;3460;52.028;8.916;2023-01-10T06:03:18;6.00;99.90
6843;DHT22;3460;52.028;8.916;2023-01-10T06:05:45;6.00;99.90
6843;DHT22;3460;52.028;8.916;2023-01-10T06:08:13;6.00;99.90
6843;DHT22;3460;52.028;8.916;2023-01-10T06:10:40;6.10;99.90
6843;DHT22;3460;52.028;8.916;2023-01-10T06:13:06;6.00;99.90
6843;DHT22;3460;52.028;8.916;2023-01-10T06:15:34;6.10;99.90
6843;DHT22;3460;52.028;8.916;2023-01-10T06:18:01;6.00;99.90
6843;DHT22;3460;52.028;8.916;2023-01-10T06:20:28;6.00;99.90
6843;DHT22;3460;52.028;8.916;2023-01-10T06:22:54;6.10;99.90
6843;DHT22;3460;52.028;8.916;2023-01-10T06:25:22;6.00;99.90
6843;DHT22;3460;52.028;8.916;2023-01-10T06:27:49;6.10;99.90
6843;DHT22;3460;52.028;8.916;2023-01-10T06:30:16;6.00;99.90
6843;DHT22;3460;52.028;8.916;2023-01-10T06:32:43;6.00;99.90
6843;DHT22;3460;52.028;8.916;2023-01-10T06:35:09;6.00;99.90
6843;DHT22;3460;52.028;8.916;2023-01-10T06:37:36;6.00;99.90
6843;DHT22;3460;52.028;8.916;2023-01-10T06:40:03;5.90;99.90
6843;DHT22;3460;52.028;8.916;2023-01-10T06:42:31;6.00;99.90
6843;DHT22;3460;52.028;8.916;2023-01-10T06:44:58;5.90;99.90
6843;DHT22;3460;52.028;8.916;2023-01-10T06:47:24;5.90;99.90
6843;DHT22;3460;52.028;8.916;2023-01-10T06:49:51;5.80;99.90
6843;DHT22;3460;52.028;8.916;2023-01-10T06:52:18;5.80;99.90
6843;DHT22;3460;52.028;8.916;2023-01-10T06:54:44;5.80;99.90
6843;DHT22;3460;52.028;8.916;2023-01-10T06:57:11;5.80;99.90
6843;DHT22;3460;52.028;8.916;2023-01-10T06:59:39;5.80;99.90
6843;DHT22;3460;52.028;8.916;2023-01-10T07:02:06;5.80;99.90
6843;DHT22;3460;52.028;8.916;2023-01-10T07:04:33;5.70;99.90
6843;DHT22;3460;52.028;8.916;2023-01-10T07:07:00;5.80;99.90
6843;DHT22;3460;52.028;8.916;2023-01-10T07:09:27;5.80;99.90
6843;DHT22;3460;52.028;8.916;2023-01-10T07:11:54;5.80;99.90
6843;DHT22;3460;52.028;8.916;2023-01-10T07:14:20;5.80;99.90
6843;DHT22;3460;52.028;8.916;2023-01-10T07:16:48;5.80;99.90
6843;DHT22;3460;52.028;8.916;2023-01-10T07:19:15;5.80;99.90
6843;DHT22;3460;52.028;8.916;2023-01-10T07:21:44;5.80;99.90
6843;DHT22;3460;52.028;8.916;2023-01-10T07:24:10;5.80;99.90
6843;DHT22;3460;52.028;8.916;2023-01-10T07:26:37;5.80;99.90
6843;DHT22;3460;52.028;8.916;2023-01-10T07:29:04;5.80;99.90
6843;DHT22;3460;52.028;8.916;2023-01-10T07:31:30;5.80;99.90
6843;DHT22;3460;52.028;8.916;2023-01-10T07:33:58;5.80;99.90
6843;DHT22;3460;52.028;8.916;2023-01-10T07:36:25;5.80;99.90
6843;DHT22;3460;52.028;8.916;2023-01-10T07:38:51;5.90;99.90
6843;DHT22;3460;52.028;8.916;2023-01-10T07:41:18;5.80;99.90
6843;DHT22;3460;52.028;8.916;2023-01-10T07:43:45;5.80;99.90
6843;DHT22;3460;52.028;8.916;2023-01-10T07:46:13;5.80;99.90
6843;DHT22;3460;52.028;8.916;2023-01-10T07:48:39;5.80;99.90
6843;DHT22;3460;52.028;8.916;2023-01-10T07:51:08;5.90;99.90
6843;DHT22;3460;52.028;8.916;2023-01-10T07:53:35;5.90;99.90
6843;DHT22;3460;52.028;8.916;2023-01-10T07:56:02;5.90;99.90
6843;DHT22;3460;52.028;8.916;2023-01-10T07:58:30;5.90;99.90
6843;DHT22;3460;52.028;8.916;2023-01-10T08:00:57;6.00;99.90
6843;DHT22;3460;52.028;8.916;2023-01-10T08:03:24;5.90;99.90
6843;DHT22;3460;52.028;8.916;2023-01-10T08:05:56;6.00;99.90
6843;DHT22;3460;52.028;8.916;2023-01-10T08:08:25;6.00;99.90
6843;DHT22;3460;52.028;8.916;2023-01-10T08:10:52;6.10;99.90
6843;DHT22;3460;52.028;8.916;2023-01-10T08:13:19;6.10;99.90
6843;DHT22;3460;52.028;8.916;2023-01-10T08:15:45;6.10;99.90
6843;DHT22;3460;52.028;8.916;2023-01-10T08:18:14;6.10;99.90
6843;DHT22;3460;52.028;8.916;2023-01-10T08:20:41;6.10;99.90
6843;DHT22;3460;52.028;8.916;2023-01-10T08:23:08;6.10;99.90
6843;DHT22;3460;52.028;8.916;2023-01-10T08:25:36;6.10;99.90
6843;DHT22;3460;52.028;8.916;2023-01-10T08:28:02;6.10;99.90
6843;DHT22;3460;52.028;8.916;2023-01-10T08:30:29;6.10;99.90
6843;DHT22;3460;52.028;8.916;2023-01-10T08:32:56;6.10;99.90
6843;DHT22;3460;52.028;8.916;2023-01-10T08:35:22;6.10;99.90
6843;DHT22;3460;52.028;8.916;2023-01-10T08:37:49;6.20;99.90
6843;DHT22;3460;52.028;8.916;2023-01-10T08:40:16;6.20;99.90
6843;DHT22;3460;52.028;8.916;2023-01-10T08:42:43;6.20;99.90
6843;DHT22;3460;52.028;8.916;2023-01-10T08:45:11;6.20;99.90
6843;DHT22;3460;52.028;8.916;2023-01-10T08:47:37;6.10;99.90
6843;DHT22;3460;52.028;8.916;2023-01-10T08:50:04;6.10;99.90
6843;DHT22;3460;52.028;8.916;2023-01-10T08:52:31;6.20;99.90
6843;DHT22;3460;52.028;8.916;2023-01-10T08:54:58;6.10;99.90
6843;DHT22;3460;52.028;8.916;2023-01-10T08:57:24;6.10;99.90
6843;DHT22;3460;52.028;8.916;2023-01-10T08:59:52;6.10;99.90
6843;DHT22;3460;52.028;8.916;2023-01-10T09:02:19;6.10;99.90
6843;DHT22;3460;52.028;8.916;2023-01-10T09:04:45;6.10;99.90
6843;DHT22;3460;52.028;8.916;2023-01-10T09:07:12;6.10;99.90
6843;DHT22;3460;52.028;8.916;2023-01-10T09:09:38;6.10;99.90
6843;DHT22;3460;52.028;8.916;2023-01-10T09:12:05;6.10;99.90
6843;DHT22;3460;52.028;8.916;2023-01-10T09:14:53;6.10;99.90
6843;DHT22;3460;52.028;8.916;2023-01-10T09:17:20;6.10;99.90
6843;DHT22;3460;52.028;8.916;2023-01-10T09:19:47;6.10;99.90
6843;DHT22;3460;52.028;8.916;2023-01-10T09:22:13;6.10;99.90
6843;DHT22;3460;52.028;8.916;2023-01-10T09:24:40;6.10;99.90
6843;DHT22;3460;52.028;8.916;2023-01-10T09:27:09;6.20;99.90
6843;DHT22;3460;52.028;8.916;2023-01-10T09:29:35;6.20;99.90
6843;DHT22;3460;52.028;8.916;2023-01-10T09:32:04;6.20;99.90
6843;DHT22;3460;52.028;8.916;2023-01-10T09:34:30;6.20;99.90
6843;DHT22;3460;52.028;8.916;2023-01-10T09:36:57;6.20;99.90
6843;DHT22;3460;52.028;8.916;2023-01-10T09:39:23;6.20;99.90
6843;DHT22;3460;52.028;8.916;2023-01-10T09:42:13;6.20;99.90
6843;DHT22;3460;52.028;8.916;2023-01-10T09:44:50;6.20;99.90
6843;DHT22;3460;52.028;8.916;2023-01-10T09:47:26;6.20;99.90
6843;DHT22;3460;52.028;8.916;2023-01-10T09:50:09;6.30;99.90
6843;DHT22;3460;52.028;8.916;2023-01-10T09:52:42;6.40;99.90
6843;DHT22;3460;52.028;8.916;2023-01-10T09:55:17;6.50;99.90
6843;DHT22;3460;52.028;8.916;2023-01-10T09:57:45;6.50;99.90
6843;DHT22;3460;52.028;8.916;2023-01-10T10:00:16;6.50;99.90
6843;DHT22;3460;52.028;8.916;2023-01-10T10:02:48;6.50;99.90
6843;DHT22;3460;52.028;8.916;2023-01-10T10:05:20;6.50;99.90
6843;DHT22;3460;52.028;8.916;2023-01-10T10:07:51;6.50;99.90
6843;DHT22;3460;52.028;8.916;2023-01-10T10:10:22;6.50;99.90
6843;DHT22;3460;52.028;8.916;2023-01-10T10:12:59;6.50;99.90
6843;DHT22;3460;52.028;8.916;2023-01-10T10:15:34;6.50;99.90
6843;DHT22;3460;52.028;8.916;2023-01-10T10:18:13;6.60;99.90
6843;DHT22;3460;52.028;8.916;2023-01-10T10:20:52;6.60;99.90
6843;DHT22;3460;52.028;8.916;2023-01-10T10:26:28;6.60;99.90
6843;DHT22;3460;52.028;8.916;2023-01-10T10:32:00;6.60;99.90
6843;DHT22;3460;52.028;8.916;2023-01-10T10:34:36;6.70;99.90
6843;DHT22;3460;52.028;8.916;2023-01-10T10:37:07;6.60;99.90
6843;DHT22;3460;52.028;8.916;2023-01-10T10:39:36;6.60;99.90
6843;DHT22;3460;52.028;8.916;2023-01-10T10:42:09;6.70;99.90
6843;DHT22;3460;52.028;8.916;2023-01-10T10:44:39;6.70;99.90
6843;DHT22;3460;52.028;8.916;2023-01-10T10:47:12;6.70;99.90
6843;DHT22;3460;52.028;8.916;2023-01-10T10:49:44;6.80;99.90
6843;DHT22;3460;52.028;8.916;2023-01-10T10:52:18;6.80;99.90
6843;DHT22;3460;52.028;8.916;2023-01-10T10:54:48;6.80;99.90
6843;DHT22;3460;52.028;8.916;2023-01-10T10:57:15;6.90;99.90
6843;DHT22;3460;52.028;8.916;2023-01-10T10:59:45;6.90;99.90
6843;DHT22;3460;52.028;8.916;2023-01-10T11:02:24;6.90;99.90
6843;DHT22;3460;52.028;8.916;2023-01-10T11:04:55;7.00;99.90
6843;DHT22;3460;52.028;8.916;2023-01-10T11:07:23;6.90;99.90
6843;DHT22;3460;52.028;8.916;2023-01-10T11:09:51;7.00;99.90
6843;DHT22;3460;52.028;8.916;2023-01-10T11:12:27;7.00;99.90
6843;DHT22;3460;52.028;8.916;2023-01-10T11:14:54;7.00;99.90
6843;DHT22;3460;52.028;8.916;2023-01-10T11:17:23;7.00;99.90
6843;DHT22;3460;52.028;8.916;2023-01-10T11:19:57;7.10;99.90
6843;DHT22;3460;52.028;8.916;2023-01-10T11:22:24;7.10;99.90
6843;DHT22;3460;52.028;8.916;2023-01-10T11:24:53;7.10;99.90
6843;DHT22;3460;52.028;8.916;2023-01-10T11:27:23;7.10;99.90
6843;DHT22;3460;52.028;8.916;2023-01-10T11:29:52;7.10;99.90
6843;DHT22;3460;52.028;8.916;2023-01-10T11:32:29;7.10;99.90
6843;DHT22;3460;52.028;8.916;2023-01-10T11:34:59;7.10;99.90
6843;DHT22;3460;52.028;8.916;2023-01-10T11:37:28;7.10;99.90
6843;DHT22;3460;52.028;8.916;2023-01-10T11:40:24;7.10;99.90
6843;DHT22;3460;52.028;8.916;2023-01-10T11:42:53;7.10;99.90
6843;DHT22;3460;52.028;8.916;2023-01-10T11:45:22;7.20;99.90
6843;DHT22;3460;52.028;8.916;2023-01-10T11:47:51;7.20;99.90
6843;DHT22;3460;52.028;8.916;2023-01-10T11:50:23;7.30;99.90
6843;DHT22;3460;52.028;8.916;2023-01-10T11:52:50;7.30;99.90
6843;DHT22;3460;52.028;8.916;2023-01-10T11:55:19;7.30;99.90
6843;DHT22;3460;52.028;8.916;2023-01-10T11:57:58;7.40;99.90
6843;DHT22;3460;52.028;8.916;2023-01-10T12:00:31;7.40;99.90
6843;DHT22;3460;52.028;8.916;2023-01-10T12:02:58;7.40;99.90
6843;DHT22;3460;52.028;8.916;2023-01-10T12:05:27;7.40;99.90
6843;DHT22;3460;52.028;8.916;2023-01-10T12:07:56;7.40;99.90
6843;DHT22;3460;52.028;8.916;2023-01-10T12:10:25;7.50;99.90
6843;DHT22;3460;52.028;8.916;2023-01-10T12:12:53;7.40;99.90
6843;DHT22;3460;52.028;8.916;2023-01-10T12:15:24;7.40;99.90
6843;DHT22;3460;52.028;8.916;2023-01-10T12:17:51;7.50;99.90
6843;DHT22;3460;52.028;8.916;2023-01-10T12:20:19;7.50;99.90
6843;DHT22;3460;52.028;8.916;2023-01-10T12:22:51;7.60;99.90
6843;DHT22;3460;52.028;8.916;2023-01-10T12:25:20;7.60;99.90
6843;DHT22;3460;52.028;8.916;2023-01-10T12:27:48;7.60;99.90
6843;DHT22;3460;52.028;8.916;2023-01-10T12:30:17;7.60;99.90
6843;DHT22;3460;52.028;8.916;2023-01-10T12:32:50;7.60;99.90
6843;DHT22;3460;52.028;8.916;2023-01-10T12:35:24;7.60;99.90
6843;DHT22;3460;52.028;8.916;2023-01-10T12:37:59;7.60;99.90
6843;DHT22;3460;52.028;8.916;2023-01-10T12:40:36;7.60;99.90
6843;DHT22;3460;52.028;8.916;2023-01-10T12:43:13;7.60;99.90
6843;DHT22;3460;52.028;8.916;2023-01-10T12:46:05;7.50;99.90
6843;DHT22;3460;52.028;8.916;2023-01-10T12:48:42;7.50;99.90
6843;DHT22;3460;52.028;8.916;2023-01-10T12:51:13;7.50;99.90
6843;DHT22;3460;52.028;8.916;2023-01-10T12:53:46;7.50;99.90
6843;DHT22;3460;52.028;8.916;2023-01-10T12:56:15;7.50;99.90
6843;DHT22;3460;52.028;8.916;2023-01-10T12:58:44;7.50;99.90
6843;DHT22;3460;52.028;8.916;2023-01-10T13:01:14;7.40;99.90
6843;DHT22;3460;52.028;8.916;2023-01-10T13:03:42;7.40;99.90
6843;DHT22;3460;52.028;8.916;2023-01-10T13:06:15;7.40;99.90
6843;DHT22;3460;52.028;8.916;2023-01-10T13:08:47;7.40;99.90
6843;DHT22;3460;52.028;8.916;2023-01-10T13:11:17;7.40;99.90
6843;DHT22;3460;52.028;8.916;2023-01-10T13:13:49;7.40;99.90
6843;DHT22;3460;52.028;8.916;2023-01-10T13:16:25;7.40;99.90
6843;DHT22;3460;52.028;8.916;2023-01-10T13:18:59;7.40;99.90
6843;DHT22;3460;52.028;8.916;2023-01-10T13:21:26;7.40;99.90
6843;DHT22;3460;52.028;8.916;2023-01-10T13:23:57;7.40;99.90
6843;DHT22;3460;52.028;8.916;2023-01-10T13:26:25;7.40;99.90
6843;DHT22;3460;52.028;8.916;2023-01-10T13:28:53;7.40;99.90
6843;DHT22;3460;52.028;8.916;2023-01-10T13:31:22;7.40;99.90
6843;DHT22;3460;52.028;8.916;2023-01-10T13:33:52;7.40;99.90
6843;DHT22;3460;52.028;8.916;2023-01-10T13:36:21;7.40;99.90
6843;DHT22;3460;52.028;8.916;2023-01-10T13:38:49;7.40;99.90
6843;DHT22;3460;52.028;8.916;2023-01-10T13:41:19;7.40;99.90
6843;DHT22;3460;52.028;8.916;2023-01-10T13:44:09;7.40;99.90
6843;DHT22;3460;52.028;8.916;2023-01-10T13:46:44;7.40;99.90
6843;DHT22;3460;52.028;8.916;2023-01-10T13:49:37;7.40;99.90
6843;DHT22;3460;52.028;8.916;2023-01-10T13:52:39;7.40;99.90
6843;DHT22;3460;52.028;8.916;2023-01-10T13:55:27;7.30;99.90
6843;DHT22;3460;52.028;8.916;2023-01-10T13:57:57;7.30;99.90
6843;DHT22;3460;52.028;8.916;2023-01-10T14:00:55;7.40;99.90
6843;DHT22;3460;52.028;8.916;2023-01-10T14:03:44;7.40;99.90
6843;DHT22;3460;52.028;8.916;2023-01-10T14:06:17;7.30;99.90
6843;DHT22;3460;52.028;8.916;2023-01-10T14:08:50;7.30;99.90
6843;DHT22;3460;52.028;8.916;2023-01-10T14:11:18;7.30;99.90
6843;DHT22;3460;52.028;8.916;2023-01-10T14:13:50;7.30;99.90
6843;DHT22;3460;52.028;8.916;2023-01-10T14:16:30;7.30;99.90
6843;DHT22;3460;52.028;8.916;2023-01-10T14:18:59;7.30;99.90
6843;DHT22;3460;52.028;8.916;2023-01-10T14:21:28;7.20;99.90
6843;DHT22;3460;52.028;8.916;2023-01-10T14:23:56;7.30;99.90
6843;DHT22;3460;52.028;8.916;2023-01-10T14:26:28;7.30;99.90
6843;DHT22;3460;52.028;8.916;2023-01-10T14:28:58;7.20;99.90
6843;DHT22;3460;52.028;8.916;2023-01-10T14:31:26;7.20;99.90
6843;DHT22;3460;52.028;8.916;2023-01-10T14:33:53;7.20;99.90
6843;DHT22;3460;52.028;8.916;2023-01-10T14:36:23;7.20;99.90
6843;DHT22;3460;52.028;8.916;2023-01-10T14:38:55;7.20;99.90
6843;DHT22;3460;52.028;8.916;2023-01-10T14:41:28;7.20;99.90
6843;DHT22;3460;52.028;8.916;2023-01-10T14:44:00;7.10;99.90
6843;DHT22;3460;52.028;8.916;2023-01-10T14:46:32;7.00;99.90
6843;DHT22;3460;52.028;8.916;2023-01-10T14:49:00;7.10;99.90
6843;DHT22;3460;52.028;8.916;2023-01-10T14:51:27;7.10;99.90
6843;DHT22;3460;52.028;8.916;2023-01-10T14:53:56;7.10;99.90
6843;DHT22;3460;52.028;8.916;2023-01-10T14:56:25;7.00;99.90
6843;DHT22;3460;52.028;8.916;2023-01-10T14:58:52;7.00;99.90
6843;DHT22;3460;52.028;8.916;2023-01-10T15:01:24;7.00;99.90
6843;DHT22;3460;52.028;8.916;2023-01-10T15:03:51;7.00;99.90
6843;DHT22;3460;52.028;8.916;2023-01-10T15:06:18;7.00;99.90
6843;DHT22;3460;52.028;8.916;2023-01-10T15:08:45;6.90;99.90
6843;DHT22;3460;52.028;8.916;2023-01-10T15:11:20;7.00;99.90
6843;DHT22;3460;52.028;8.916;2023-01-10T15:13:49;6.90;99.90
6843;DHT22;3460;52.028;8.916;2023-01-10T15:16:19;6.90;99.90
6843;DHT22;3460;52.028;8.916;2023-01-10T15:18:49;6.80;99.90
6843;DHT22;3460;52.028;8.916;2023-01-10T15:21:17;6.90;99.90
6843;DHT22;3460;52.028;8.916;2023-01-10T15:23:46;6.80;99.90
6843;DHT22;3460;52.028;8.916;2023-01-10T15:26:16;6.80;99.90
6843;DHT22;3460;52.028;8.916;2023-01-10T15:28:45;6.70;99.90
6843;DHT22;3460;52.028;8.916;2023-01-10T15:31:15;6.70;99.90
6843;DHT22;3460;52.028;8.916;2023-01-10T15:33:43;6.80;99.90
6843;DHT22;3460;52.028;8.916;2023-01-10T15:36:14;6.70;99.90
6843;DHT22;3460;52.028;8.916;2023-01-10T15:38:44;6.70;99.90
6843;DHT22;3460;52.028;8.916;2023-01-10T15:41:16;6.80;99.90
6843;DHT22;3460;52.028;8.916;2023-01-10T15:43:44;6.70;99.90
6843;DHT22;3460;52.028;8.916;2023-01-10T15:46:17;6.70;99.90
6843;DHT22;3460;52.028;8.916;2023-01-10T15:48:53;6.70;99.90
6843;DHT22;3460;52.028;8.916;2023-01-10T15:51:25;6.70;99.90
6843;DHT22;3460;52.028;8.916;2023-01-10T15:53:57;6.70;99.90
6843;DHT22;3460;52.028;8.916;2023-01-10T15:56:31;6.70;99.90
6843;DHT22;3460;52.028;8.916;2023-01-10T15:58:59;6.60;99.90
6843;DHT22;3460;52.028;8.916;2023-01-10T16:01:27;6.60;99.90
6843;DHT22;3460;52.028;8.916;2023-01-10T16:03:55;6.60;99.90
6843;DHT22;3460;52.028;8.916;2023-01-10T16:06:26;6.60;99.90
6843;DHT22;3460;52.028;8.916;2023-01-10T16:08:55;6.60;99.90
6843;DHT22;3460;52.028;8.916;2023-01-10T16:11:26;6.60;99.90
6843;DHT22;3460;52.028;8.916;2023-01-10T16:14:11;6.60;99.90
6843;DHT22;3460;52.028;8.916;2023-01-10T16:16:37;6.60;99.90
6843;DHT22;3460;52.028;8.916;2023-01-10T16:19:04;6.70;99.90
6843;DHT22;3460;52.028;8.916;2023-01-10T16:21:35;6.60;99.90
6843;DHT22;3460;52.028;8.916;2023-01-10T16:24:05;6.60;99.90
6843;DHT22;3460;52.028;8.916;2023-01-10T16:26:33;6.60;99.90
6843;DHT22;3460;52.028;8.916;2023-01-10T16:29:00;6.60;99.90
6843;DHT22;3460;52.028;8.916;2023-01-10T16:31:27;6.60;99.90
6843;DHT22;3460;52.028;8.916;2023-01-10T16:33:53;6.60;99.90
6843;DHT22;3460;52.028;8.916;2023-01-10T16:36:20;6.60;99.90
6843;DHT22;3460;52.028;8.916;2023-01-10T16:38:48;6.60;99.90
6843;DHT22;3460;52.028;8.916;2023-01-10T16:41:15;6.60;99.90
6843;DHT22;3460;52.028;8.916;2023-01-10T16:43:59;6.70;99.90
6843;DHT22;3460;52.028;8.916;2023-01-10T16:46:26;6.60;99.90